Baltimore, Maryland
Traffic Map
Current Weather Conditions
Baltimore, Maryland
Overcast Light Rain
Overcast
38°
Feels Like: 30°
Wind Chill: 30° Ceiling: 4400
Heat Index: 38° Visibility: 6mi
Dew Point: 34° Wind: 14mph
Humidity: 86% Direction: 60° (ENE)
Pressure: 29.84in Gusts: 0mph
Raw Report DataKBWI 260754Z 06012KT 6SM -RA BR OVC044 03/01 A2984 RMK AO2 SLP106 P0002 T00330011
Traffic Incident Summary
Active as of:
Severity:
Category:
InformationThere was an issue retrieving the traffic information for this location. Please try a different location or try again shortly.
Advertisements
Track Severe Weather on mobile